Time;durP1;ratioP1;P1;durP2;ratioP2;P2;SDS_P1;SDS_P2;PMS_P1;PMS_P2;Temp;Humidity;BMP_temperature;BMP_pressure;BME280_temperature;BME280_humidity;BME280_pressure;Samples;Min_cycle;Max_cycle;Signal;HPM_P1;HPM_P2
2021/05/25 00:01:02;;;;;;;9.02;3.15;;;22.70;99.90;;;;;;4950751;29;20041;-77
2021/05/25 00:03:28;;;;;;;9.68;3.70;;;22.80;99.90;;;;;;4951499;29;20038;-79
2021/05/25 00:05:54;;;;;;;7.20;3.05;;;22.80;99.90;;;;;;4951912;28;20039;-76
2021/05/25 00:08:20;;;;;;;7.00;3.03;;;22.90;99.90;;;;;;4945715;29;20059;-81
2021/05/25 00:10:46;;;;;;;7.35;4.00;;;22.80;99.90;;;;;;4952117;29;20062;-81
2021/05/25 00:13:11;;;;;;;12.00;7.20;;;22.60;99.90;;;;;;4953179;28;20139;-80
2021/05/25 00:15:37;;;;;;;52.30;34.55;;;22.60;99.90;;;;;;4952513;28;20480;-81
2021/05/25 00:18:04;;;;;;;11.25;6.18;;;22.80;99.90;;;;;;4953392;28;20086;-79
2021/05/25 00:20:31;;;;;;;11.52;3.60;;;22.80;99.90;;;;;;4952842;28;20023;-80
2021/05/25 00:22:57;;;;;;;10.85;3.92;;;22.80;99.90;;;;;;4953091;28;20423;-81
2021/05/25 00:25:23;;;;;;;8.77;3.78;;;22.80;99.90;;;;;;4952719;28;20484;-79
2021/05/25 00:27:49;;;;;;;8.57;3.30;;;22.80;99.90;;;;;;4952736;28;20479;-78
2021/05/25 00:30:19;;;;;;;8.93;3.30;;;22.80;99.90;;;;;;4952897;28;20110;-80
2021/05/25 00:32:46;;;;;;;19.42;13.60;;;22.80;99.90;;;;;;4933874;29;20028;-80
2021/05/25 00:35:13;;;;;;;13.18;8.85;;;22.80;99.90;;;;;;4933611;29;20087;-75
2021/05/25 00:37:39;;;;;;;26.67;17.45;;;22.80;99.90;;;;;;4933979;29;20467;-82
2021/05/25 00:40:10;;;;;;;10.68;4.90;;;22.80;99.90;;;;;;4934032;29;20040;-83
2021/05/25 00:42:36;;;;;;;6.93;3.55;;;22.60;99.90;;;;;;4933010;29;20106;-80
2021/05/25 00:45:05;;;;;;;6.13;3.40;;;22.50;99.90;;;;;;4933736;29;20377;-81
2021/05/25 00:47:34;;;;;;;8.45;3.40;;;22.30;99.90;;;;;;4933733;29;20032;-79
2021/05/25 00:50:11;;;;;;;7.25;3.03;;;22.20;99.90;;;;;;4933613;29;20028;-77
2021/05/25 00:52:54;;;;;;;9.90;3.63;;;22.10;99.90;;;;;;4942787;29;20395;-80
2021/05/25 00:55:31;;;;;;;13.00;3.17;;;22.30;99.90;;;;;;4956458;29;20047;-78
2021/05/25 00:57:58;;;;;;;9.02;3.75;;;22.30;99.90;;;;;;4956470;29;20047;-81
2021/05/25 01:00:32;;;;;;;8.90;2.95;;;22.50;99.90;;;;;;4956519;29;20027;-80
2021/05/25 01:02:58;;;;;;;6.47;2.90;;;22.40;99.90;;;;;;4955041;29;20472;-82
2021/05/25 01:05:24;;;;;;;5.75;2.97;;;22.40;99.90;;;;;;4956178;29;20087;-77
2021/05/25 01:07:50;;;;;;;4.63;3.10;;;22.30;99.90;;;;;;4955913;29;20029;-80
2021/05/25 01:10:23;;;;;;;9.98;3.35;;;22.30;99.90;;;;;;4955987;29;20050;-80
2021/05/25 01:12:55;;;;;;;7.53;3.13;;;22.30;99.90;;;;;;4956078;29;20020;-83
2021/05/25 01:15:22;;;;;;;7.25;2.97;;;22.30;99.90;;;;;;4954737;29;20031;-86
2021/05/25 01:17:51;;;;;;;7.30;3.22;;;22.30;99.90;;;;;;4956134;29;20071;-77
2021/05/25 01:20:18;;;;;;;7.75;3.20;;;22.40;99.90;;;;;;4955903;29;20472;-80
2021/05/25 01:22:44;;;;;;;9.80;2.95;;;22.30;99.90;;;;;;4955696;29;20038;-79
2021/05/25 01:25:12;;;;;;;13.65;3.40;;;22.30;99.90;;;;;;4955695;28;20051;-84
2021/05/25 01:27:38;;;;;;;7.22;2.60;;;22.20;99.90;;;;;;4955400;29;20038;-79
2021/05/25 01:30:06;;;;;;;7.68;2.90;;;22.20;99.90;;;;;;4955577;29;20364;-79
2021/05/25 01:32:32;;;;;;;6.32;2.97;;;22.10;99.90;;;;;;4954753;29;20031;-77
2021/05/25 01:34:58;;;;;;;6.60;2.58;;;21.90;99.90;;;;;;4955735;29;20038;-81
2021/05/25 01:37:24;;;;;;;6.45;2.92;;;21.80;99.90;;;;;;4955496;28;20027;-82
2021/05/25 01:39:54;;;;;;;8.05;3.50;;;21.70;99.90;;;;;;4955633;29;20031;-81
2021/05/25 01:42:20;;;;;;;10.60;3.83;;;21.70;99.90;;;;;;4955711;29;20021;-81
2021/05/25 01:44:46;;;;;;;8.60;3.22;;;21.70;99.90;;;;;;4955228;29;20039;-82
2021/05/25 01:47:12;;;;;;;9.07;2.67;;;21.40;99.90;;;;;;4955378;29;20037;-82
2021/05/25 01:49:39;;;;;;;6.07;3.30;;;21.60;99.90;;;;;;4955411;29;20031;-80
2021/05/25 01:52:05;;;;;;;7.30;3.03;;;21.60;99.90;;;;;;4955174;29;20028;-79
2021/05/25 01:54:31;;;;;;;7.13;3.65;;;21.80;99.90;;;;;;4955454;28;20062;-84
2021/05/25 01:56:57;;;;;;;5.20;3.15;;;21.80;99.90;;;;;;4954062;29;20031;-81
2021/05/25 01:59:23;;;;;;;8.07;3.25;;;21.80;99.90;;;;;;4955400;28;20054;-81
2021/05/25 02:01:48;;;;;;;8.52;3.25;;;21.80;99.90;;;;;;4953668;28;20083;-79
2021/05/25 02:04:14;;;;;;;8.93;3.60;;;21.60;99.90;;;;;;4955103;28;20035;-82
2021/05/25 02:06:40;;;;;;;9.25;4.97;;;21.20;99.90;;;;;;4954935;28;20102;-81
2021/05/25 02:09:06;;;;;;;8.27;3.88;;;21.10;99.90;;;;;;4953798;29;20114;-81
2021/05/25 02:11:31;;;;;;;7.60;4.32;;;21.30;99.90;;;;;;4954983;29;20505;-86
2021/05/25 02:13:57;;;;;;;12.63;4.25;;;21.20;99.90;;;;;;4955253;28;20463;-83
2021/05/25 02:16:23;;;;;;;7.60;4.07;;;21.00;99.90;;;;;;4953609;29;20086;-83
2021/05/25 02:18:49;;;;;;;9.88;4.00;;;20.70;99.90;;;;;;4954952;29;20428;-78
2021/05/25 02:21:17;;;;;;;12.20;4.40;;;20.60;99.90;;;;;;4955006;28;20097;-79
2021/05/25 02:23:44;;;;;;;6.78;3.22;;;20.50;99.90;;;;;;4953699;28;20356;-81
2021/05/25 02:26:11;;;;;;;8.07;3.65;;;20.60;99.90;;;;;;4954616;28;20387;-82
2021/05/25 02:28:37;;;;;;;8.75;3.97;;;20.70;99.90;;;;;;4953583;29;20086;-82
2021/05/25 02:31:03;;;;;;;8.25;4.05;;;21.10;99.90;;;;;;4954650;29;20023;-83
2021/05/25 02:33:30;;;;;;;8.43;3.80;;;21.30;99.90;;;;;;4954672;28;20034;-82
2021/05/25 02:35:57;;;;;;;7.57;3.92;;;21.50;99.90;;;;;;4954641;28;20019;-79
2021/05/25 02:38:24;;;;;;;9.52;4.30;;;21.60;99.90;;;;;;4954758;28;20035;-80
2021/05/25 02:40:51;;;;;;;8.27;3.80;;;21.50;99.90;;;;;;4954586;28;20071;-77
2021/05/25 02:43:19;;;;;;;9.82;3.58;;;21.50;99.90;;;;;;4954732;28;20378;-80
2021/05/25 02:45:46;;;;;;;9.13;4.10;;;21.50;99.90;;;;;;4954176;28;20035;-78
2021/05/25 02:48:13;;;;;;;9.52;4.10;;;21.40;99.90;;;;;;4954199;28;20035;-80
2021/05/25 02:50:39;;;;;;;7.80;3.50;;;21.30;99.90;;;;;;4953157;29;20031;-80
2021/05/25 02:53:05;;;;;;;9.27;4.90;;;21.30;99.90;;;;;;4954205;28;20046;-79
2021/05/25 02:55:33;;;;;;;7.72;4.32;;;21.30;99.90;;;;;;4950248;29;20040;-78
2021/05/25 02:58:00;;;;;;;5.82;3.60;;;21.00;99.90;;;;;;4935100;29;20023;-78
2021/05/25 03:00:40;;;;;;;10.70;4.07;;;21.10;99.90;;;;;;4935416;29;20361;-76
2021/05/25 03:03:07;;;;;;;10.10;4.03;;;20.90;99.90;;;;;;4918099;29;20027;-78
2021/05/25 03:05:34;;;;;;;8.88;4.15;;;20.40;99.90;;;;;;4935011;29;20067;-77
2021/05/25 03:08:02;;;;;;;9.57;4.00;;;20.50;99.90;;;;;;4934735;29;20034;-77
2021/05/25 03:10:31;;;;;;;10.15;4.22;;;20.90;99.90;;;;;;4917783;29;20126;-77
2021/05/25 03:12:57;;;;;;;7.45;3.90;;;21.10;99.90;;;;;;4934451;29;20052;-78
2021/05/25 03:15:31;;;;;;;11.57;4.20;;;21.10;99.90;;;;;;4934199;29;20024;-79
2021/05/25 03:17:57;;;;;;;9.02;4.20;;;21.00;99.90;;;;;;4917673;29;20484;-79
2021/05/25 03:20:24;;;;;;;8.15;4.28;;;21.10;99.90;;;;;;4934977;29;20027;-78
2021/05/25 03:22:50;;;;;;;7.85;4.35;;;21.10;99.90;;;;;;4934526;29;20353;-79
2021/05/25 03:25:17;;;;;;;12.02;4.10;;;21.00;99.90;;;;;;4934787;29;20480;-79
2021/05/25 03:27:44;;;;;;;10.30;4.35;;;21.00;99.90;;;;;;4933868;29;20035;-78
2021/05/25 03:30:14;;;;;;;6.85;3.75;;;20.80;99.90;;;;;;4934610;29;20115;-80
2021/05/25 03:32:40;;;;;;;11.85;4.88;;;20.80;99.90;;;;;;4917551;29;20111;-79
2021/05/25 03:35:07;;;;;;;9.95;4.40;;;20.90;99.90;;;;;;4934750;29;20466;-80
2021/05/25 03:37:34;;;;;;;8.85;4.35;;;20.80;99.90;;;;;;4934491;29;20020;-79
2021/05/25 03:40:00;;;;;;;12.90;5.10;;;20.80;99.90;;;;;;4934892;29;20039;-80
2021/05/25 03:42:26;;;;;;;8.20;4.38;;;20.90;99.90;;;;;;4934412;29;20028;-81
2021/05/25 03:44:52;;;;;;;9.45;4.93;;;21.00;99.90;;;;;;4934416;29;20036;-80
2021/05/25 03:47:18;;;;;;;7.82;4.68;;;21.00;99.90;;;;;;4934164;29;20106;-80
2021/05/25 03:49:46;;;;;;;8.45;4.45;;;21.10;99.90;;;;;;4934638;29;20052;-80
2021/05/25 03:52:13;;;;;;;9.05;4.63;;;21.00;99.90;;;;;;4934231;29;20087;-81
2021/05/25 03:55:01;;;;;;;8.80;3.85;;;21.00;99.90;;;;;;4953456;29;20134;-83
2021/05/25 03:59:54;;;;;;;10.02;4.43;;;21.10;99.90;;;;;;4953759;29;20023;-84
2021/05/25 04:02:20;;;;;;;11.88;4.47;;;21.00;99.90;;;;;;4953586;29;20090;-83
2021/05/25 04:04:46;;;;;;;8.43;4.68;;;21.10;99.90;;;;;;4953373;29;20039;-81
2021/05/25 04:07:12;;;;;;;8.95;3.90;;;21.10;99.90;;;;;;4953246;29;20035;-82
2021/05/25 04:09:38;;;;;;;10.35;4.07;;;21.00;99.90;;;;;;4953587;29;20058;-84
2021/05/25 04:12:04;;;;;;;9.43;3.75;;;21.20;99.90;;;;;;4952910;29;20019;-79
2021/05/25 04:14:30;;;;;;;11.25;4.20;;;21.30;99.90;;;;;;4952611;29;20672;-78
2021/05/25 04:16:56;;;;;;;15.73;6.55;;;21.40;99.90;;;;;;4953326;29;20472;-83
2021/05/25 04:19:23;;;;;;;11.80;5.05;;;21.40;99.90;;;;;;4953447;29;20361;-84
2021/05/25 04:21:49;;;;;;;10.18;5.07;;;21.40;99.90;;;;;;4936218;29;20518;-81
2021/05/25 04:24:15;;;;;;;11.10;4.05;;;21.30;99.90;;;;;;4944048;28;20091;-84
2021/05/25 04:26:41;;;;;;;9.85;4.93;;;21.40;99.90;;;;;;4910900;29;20071;-77
2021/05/25 04:29:07;;;;;;;9.15;4.70;;;21.40;99.90;;;;;;4902645;29;20396;-82
2021/05/25 04:31:33;;;;;;;9.32;4.47;;;21.40;99.90;;;;;;4919054;29;20043;-84
2021/05/25 04:33:58;;;;;;;11.18;4.45;;;21.40;99.90;;;;;;4918365;29;20043;-80
2021/05/25 04:36:24;;;;;;;10.35;4.47;;;21.50;99.90;;;;;;4918633;29;20032;-83
2021/05/25 04:38:50;;;;;;;10.60;5.00;;;20.50;99.90;;;;;;4919177;29;20115;-83
2021/05/25 04:41:17;;;;;;;9.82;5.10;;;20.60;99.90;;;;;;4918792;29;20032;-84
2021/05/25 04:43:42;;;;;;;14.10;5.20;;;21.00;99.90;;;;;;4918121;29;20051;-90
2021/05/25 04:46:08;;;;;;;9.70;4.68;;;20.80;99.90;;;;;;4918507;29;20075;-78
2021/05/25 04:48:34;;;;;;;20.52;6.78;;;20.80;99.90;;;;;;4918339;29;20058;-79
2021/05/25 04:51:00;;;;;;;14.80;5.30;;;21.00;99.90;;;;;;4918408;29;20032;-79
2021/05/25 04:53:25;;;;;;;14.90;5.68;;;21.20;99.90;;;;;;4933369;29;20487;-81
2021/05/25 04:55:51;;;;;;;12.57;5.25;;;21.40;99.90;;;;;;4956335;29;20027;-79
2021/05/25 04:58:17;;;;;;;13.45;4.80;;;21.60;99.90;;;;;;4955966;29;20065;-80
2021/05/25 05:00:45;;;;;;;9.85;6.22;;;21.30;99.90;;;;;;4956634;29;20095;-82
2021/05/25 05:03:10;;;;;;;11.27;4.82;;;21.20;99.90;;;;;;4956040;29;20043;-80
2021/05/25 05:05:36;;;;;;;9.40;5.13;;;21.50;99.90;;;;;;4956203;29;20070;-80
2021/05/25 05:08:05;;;;;;;14.27;4.82;;;21.60;99.90;;;;;;4955803;29;20039;-79
2021/05/25 05:10:31;;;;;;;20.42;5.45;;;21.70;99.90;;;;;;4956213;29;20432;-80
2021/05/25 05:12:57;;;;;;;16.73;5.43;;;21.90;99.90;;;;;;4938450;29;20502;-79
2021/05/25 05:15:23;;;;;;;12.05;4.47;;;22.00;99.90;;;;;;4956134;29;20510;-81
2021/05/25 05:17:50;;;;;;;10.57;4.13;;;22.00;99.90;;;;;;4938845;29;20031;-82
2021/05/25 05:20:16;;;;;;;10.48;4.68;;;22.00;99.90;;;;;;4956367;29;20024;-77
2021/05/25 05:22:42;;;;;;;11.63;4.10;;;22.00;99.90;;;;;;4955677;28;20367;-84
2021/05/25 05:25:10;;;;;;;13.27;4.35;;;21.10;99.90;;;;;;4938826;29;20169;-84
2021/05/25 05:27:36;;;;;;;11.02;4.65;;;20.90;99.90;;;;;;4938498;29;20327;-84
2021/05/25 05:30:04;;;;;;;13.77;4.82;;;21.20;99.90;;;;;;4955600;29;20078;-81
2021/05/25 05:32:30;;;;;;;13.68;5.22;;;21.00;99.90;;;;;;4938176;29;20491;-83
2021/05/25 05:34:55;;;;;;;8.55;4.32;;;21.20;99.90;;;;;;4955452;29;20066;-79
2021/05/25 05:37:21;;;;;;;8.02;4.00;;;21.30;99.90;;;;;;4954584;28;20027;-85
2021/05/25 05:39:47;;;;;;;10.23;4.03;;;21.80;99.90;;;;;;4955180;29;20067;-85
2021/05/25 05:42:13;;;;;;;13.57;4.40;;;21.80;99.90;;;;;;4938197;29;20475;-86
2021/05/25 05:44:39;;;;;;;12.07;3.88;;;21.90;99.90;;;;;;4955080;29;20134;-84
2021/05/25 05:47:05;;;;;;;6.95;3.67;;;22.10;99.90;;;;;;4938201;29;20082;-80
2021/05/25 05:49:30;;;;;;;12.30;3.95;;;22.30;99.90;;;;;;4955251;29;20024;-80
2021/05/25 05:51:56;;;;;;;12.13;3.83;;;22.30;99.90;;;;;;4955020;29;20027;-81
2021/05/25 05:54:22;;;;;;;9.57;3.55;;;22.30;99.90;;;;;;4954357;28;20058;-80
2021/05/25 05:56:48;;;;;;;10.23;4.40;;;22.40;99.90;;;;;;4955445;28;20046;-81
2021/05/25 05:59:17;;;;;;;11.48;3.80;;;22.50;99.90;;;;;;4953658;29;20420;-79
2021/05/25 06:01:43;;;;;;;12.83;6.33;;;22.60;99.90;;;;;;4944049;28;20023;-78
2021/05/25 06:04:09;;;;;;;59.10;39.05;;;22.60;99.90;;;;;;4939245;28;20274;-76
2021/05/25 06:06:35;;;;;;;126.28;81.88;;;22.80;99.90;;;;;;4954735;29;20042;-80
2021/05/25 06:09:00;;;;;;;23.35;14.50;;;22.90;99.90;;;;;;4954637;28;20031;-79
2021/05/25 06:11:26;;;;;;;9.95;4.20;;;22.90;99.90;;;;;;4954708;29;20088;-83
2021/05/25 06:13:52;;;;;;;7.95;4.80;;;23.00;99.90;;;;;;4954432;29;20043;-82
2021/05/25 06:16:18;;;;;;;8.77;4.32;;;23.10;99.90;;;;;;4954088;29;20475;-82
2021/05/25 06:18:44;;;;;;;9.48;3.70;;;23.10;99.90;;;;;;4954708;29;20475;-83
2021/05/25 06:21:09;;;;;;;10.55;4.22;;;23.20;99.90;;;;;;4954567;29;20023;-76
2021/05/25 06:23:35;;;;;;;10.48;4.13;;;23.40;99.90;;;;;;4951988;28;20046;-77
2021/05/25 06:26:02;;;;;;;17.52;6.07;;;23.60;99.90;;;;;;4945523;28;20044;-79
2021/05/25 06:28:29;;;;;;;14.75;4.82;;;23.50;99.90;;;;;;4954180;28;20375;-79
2021/05/25 06:30:55;;;;;;;14.68;4.50;;;23.50;99.90;;;;;;4954009;28;20031;-80
2021/05/25 06:33:21;;;;;;;14.20;4.70;;;23.40;99.90;;;;;;4952468;29;20471;-83
2021/05/25 06:35:49;;;;;;;10.13;4.80;;;23.40;99.90;;;;;;4951740;29;20087;-81
2021/05/25 06:38:15;;;;;;;7.72;4.50;;;23.30;99.90;;;;;;4953361;28;20023;-81
2021/05/25 06:40:40;;;;;;;12.82;4.30;;;23.20;99.90;;;;;;4952438;29;20035;-80
2021/05/25 06:43:06;;;;;;;8.93;3.70;;;23.20;99.90;;;;;;4952743;29;20078;-81
2021/05/25 06:45:32;;;;;;;6.68;3.85;;;23.00;99.90;;;;;;4953107;28;20035;-85
2021/05/25 06:47:58;;;;;;;8.68;4.30;;;23.00;99.90;;;;;;4952262;28;20034;-86
2021/05/25 06:50:23;;;;;;;8.95;3.67;;;23.10;99.90;;;;;;4951853;28;20106;-83
2021/05/25 06:52:49;;;;;;;11.57;3.63;;;23.10;99.90;;;;;;4939114;29;20036;-80
2021/05/25 06:55:15;;;;;;;9.60;3.95;;;23.30;99.90;;;;;;4952488;29;20039;-87
2021/05/25 06:57:41;;;;;;;16.05;4.70;;;23.30;99.90;;;;;;4953194;29;20571;-79
2021/05/25 07:00:10;;;;;;;5.82;3.08;;;23.30;99.90;;;;;;4953525;29;20479;-82
2021/05/25 07:02:37;;;;;;;7.78;3.42;;;23.20;99.90;;;;;;4951740;29;20052;-79
2021/05/25 07:05:05;;;;;;;11.32;3.55;;;23.40;99.90;;;;;;4952981;29;20031;-85
2021/05/25 07:07:31;;;;;;;12.90;4.35;;;23.30;99.90;;;;;;4940638;29;20431;-85
2021/05/25 07:09:57;;;;;;;10.10;3.75;;;23.30;99.90;;;;;;4953528;28;20091;-86
2021/05/25 07:12:23;;;;;;;8.98;3.80;;;23.40;99.90;;;;;;4952177;29;20125;-85
2021/05/25 07:14:49;;;;;;;6.25;3.22;;;23.60;99.90;;;;;;4951934;29;20407;-83
2021/05/25 07:17:14;;;;;;;10.23;3.20;;;23.70;99.90;;;;;;4953234;28;20379;-85
2021/05/25 07:19:40;;;;;;;9.43;3.42;;;23.60;99.90;;;;;;4951413;29;20078;-76
2021/05/25 07:22:06;;;;;;;10.75;3.20;;;23.60;99.90;;;;;;4952190;28;20090;-83
2021/05/25 07:24:32;;;;;;;7.13;2.83;;;23.60;99.90;;;;;;4952093;29;20066;-82
2021/05/25 07:26:58;;;;;;;9.13;2.70;;;23.50;99.90;;;;;;4952169;28;20028;-87
2021/05/25 07:29:24;;;;;;;9.73;2.80;;;23.40;99.90;;;;;;4953336;28;20030;-83
2021/05/25 07:31:50;;;;;;;32.50;20.33;;;23.50;99.90;;;;;;4953375;28;20027;-78
2021/05/25 07:34:16;;;;;;;15.23;7.07;;;23.60;99.90;;;;;;4953247;28;20027;-82
2021/05/25 07:36:42;;;;;;;25.10;17.27;;;23.80;99.90;;;;;;4953346;29;20034;-84
2021/05/25 07:39:08;;;;;;;7.82;4.05;;;23.90;99.90;;;;;;4953969;28;20038;-85
2021/05/25 07:41:34;;;;;;;6.25;3.20;;;24.10;99.90;;;;;;4952134;28;20077;-87
2021/05/25 07:44:01;;;;;;;7.40;3.22;;;24.00;99.90;;;;;;4952304;29;20031;-89
2021/05/25 07:46:27;;;;;;;9.05;3.22;;;24.00;99.60;;;;;;4951752;29;20030;-91
2021/05/25 07:48:54;;;;;;;9.30;3.08;;;24.00;99.40;;;;;;4952501;28;20019;-86
2021/05/25 07:51:20;;;;;;;7.20;3.88;;;24.10;99.60;;;;;;4942612;29;20051;-86
2021/05/25 07:53:47;;;;;;;7.32;2.92;;;24.20;99.50;;;;;;4952929;28;20035;-84
2021/05/25 07:56:13;;;;;;;13.13;3.58;;;24.40;99.30;;;;;;4952830;28;20036;-83
2021/05/25 07:58:38;;;;;;;5.72;3.13;;;24.50;98.60;;;;;;4952161;28;20050;-83
2021/05/25 08:01:04;;;;;;;6.93;3.03;;;24.60;98.40;;;;;;4955364;28;20062;-81
2021/05/25 08:03:30;;;;;;;5.88;3.20;;;24.70;98.50;;;;;;4958291;29;20041;-90
2021/05/25 08:06:06;;;;;;;8.40;4.07;;;24.60;98.10;;;;;;4955764;29;20046;-88
2021/05/25 08:08:31;;;;;;;8.05;2.85;;;24.50;98.40;;;;;;4956681;28;20079;-84
2021/05/25 08:11:00;;;;;;;11.63;6.82;;;24.70;98.40;;;;;;4955550;28;20031;-90
2021/05/25 08:13:28;;;;;;;38.75;24.25;;;25.00;98.00;;;;;;4958125;28;20046;-80
2021/05/25 08:15:54;;;;;;;10.75;5.40;;;24.90;98.00;;;;;;4949285;29;20023;-93
2021/05/25 08:18:36;;;;;;;6.63;3.25;;;25.00;97.20;;;;;;4958072;29;20426;-90
2021/05/25 08:21:03;;;;;;;8.02;3.00;;;25.00;96.80;;;;;;4958700;28;20031;-87
2021/05/25 08:23:28;;;;;;;10.75;3.30;;;25.10;97.00;;;;;;4957911;28;20040;-87
2021/05/25 08:25:54;;;;;;;6.07;2.60;;;25.20;97.40;;;;;;4955831;28;20043;-91
2021/05/25 08:28:20;;;;;;;8.15;3.25;;;25.30;96.70;;;;;;4957263;28;20098;-91
2021/05/25 08:30:47;;;;;;;6.35;3.20;;;25.30;96.60;;;;;;4956994;28;20102;-88
2021/05/25 08:33:14;;;;;;;5.90;2.55;;;25.50;96.60;;;;;;4956359;29;20162;-85
2021/05/25 08:35:40;;;;;;;5.75;2.88;;;25.50;95.90;;;;;;4957687;28;20023;-85
2021/05/25 08:38:12;;;;;;;6.70;2.80;;;25.40;95.80;;;;;;4957217;28;20078;-90
2021/05/25 08:40:39;;;;;;;6.07;2.80;;;25.40;95.40;;;;;;4955500;29;20027;-87
2021/05/25 08:43:05;;;;;;;4.55;2.60;;;25.50;95.80;;;;;;4956128;28;20019;-89
2021/05/25 08:45:31;;;;;;;4.53;2.55;;;25.40;95.50;;;;;;4955502;28;20118;-83
2021/05/25 08:47:57;;;;;;;14.20;2.90;;;25.60;95.90;;;;;;4955239;28;20114;-85
2021/05/25 08:50:28;;;;;;;5.80;2.50;;;25.50;95.40;;;;;;4955082;29;20456;-89
2021/05/25 08:52:59;;;;;;;7.13;3.10;;;25.40;95.80;;;;;;4956838;28;20031;-88
2021/05/25 08:55:27;;;;;;;5.68;2.88;;;25.50;95.60;;;;;;4956010;28;20042;-84
2021/05/25 08:57:52;;;;;;;8.77;2.95;;;25.60;95.80;;;;;;4954982;28;20063;-86
2021/05/25 09:00:20;;;;;;;6.13;2.78;;;25.80;95.00;;;;;;4946568;29;20170;-87
2021/05/25 09:02:45;;;;;;;5.10;3.20;;;25.80;94.70;;;;;;4954972;28;20178;-76
2021/05/25 09:05:15;;;;;;;8.13;3.20;;;25.90;94.80;;;;;;4956099;28;20031;-83
2021/05/25 09:07:47;;;;;;;9.73;2.80;;;25.80;94.40;;;;;;4955359;28;20033;-83
2021/05/25 09:10:23;;;;;;;10.20;3.10;;;25.80;95.10;;;;;;4937199;29;20035;-86
2021/05/25 09:12:52;;;;;;;7.55;3.10;;;25.90;95.10;;;;;;4930779;29;20111;-83
2021/05/25 09:15:43;;;;;;;9.25;3.03;;;26.30;95.30;;;;;;4952656;29;20023;-88
2021/05/25 09:18:20;;;;;;;8.20;2.72;;;26.30;94.50;;;;;;4952810;29;20035;-86
2021/05/25 09:21:04;;;;;;;5.68;2.75;;;26.40;93.80;;;;;;4956149;28;20049;-84
2021/05/25 09:23:33;;;;;;;7.30;3.10;;;26.50;94.20;;;;;;4954084;28;20054;-88
2021/05/25 09:26:06;;;;;;;6.65;2.78;;;26.60;93.90;;;;;;4955225;28;20047;-84
2021/05/25 09:28:33;;;;;;;6.28;2.78;;;26.80;93.30;;;;;;4954211;29;20119;-82
2021/05/25 09:30:59;;;;;;;4.78;2.45;;;26.90;92.80;;;;;;4955505;29;20035;-83
2021/05/25 09:33:25;;;;;;;7.88;2.78;;;26.90;93.00;;;;;;4954530;28;20239;-82
2021/05/25 09:35:52;;;;;;;9.35;3.03;;;26.70;92.90;;;;;;4955886;29;20034;-83
2021/05/25 09:38:20;;;;;;;8.77;4.82;;;27.20;92.70;;;;;;4955236;29;20023;-82
2021/05/25 09:40:50;;;;;;;11.32;6.72;;;27.20;92.90;;;;;;4955298;29;20082;-82
2021/05/25 09:43:30;;;;;;;33.50;19.50;;;27.70;92.40;;;;;;4954375;29;20031;-82
2021/05/25 09:45:57;;;;;;;8.07;3.10;;;27.70;91.90;;;;;;4955147;28;20403;-84
2021/05/25 09:48:25;;;;;;;7.13;2.80;;;27.50;91.80;;;;;;4955023;29;20036;-82
2021/05/25 09:50:54;;;;;;;9.32;3.42;;;27.90;91.30;;;;;;4955349;29;20023;-84
2021/05/25 09:53:21;;;;;;;5.53;2.72;;;27.90;90.90;;;;;;4954123;29;20047;-83
2021/05/25 09:55:59;;;;;;;10.50;3.20;;;27.70;91.80;;;;;;4940839;29;20481;-79
2021/05/25 09:58:38;;;;;;;5.70;2.72;;;27.60;91.30;;;;;;4923824;29;20098;-84
2021/05/25 10:01:08;;;;;;;5.90;2.83;;;27.90;90.50;;;;;;4915005;29;20064;-82
2021/05/25 10:03:52;;;;;;;6.28;2.88;;;27.90;90.30;;;;;;4907447;29;20038;-78
2021/05/25 10:06:19;;;;;;;5.25;2.55;;;27.50;90.10;;;;;;4911455;29;20042;-80
2021/05/25 10:08:49;;;;;;;6.13;2.35;;;27.50;91.30;;;;;;4925471;29;20131;-80
2021/05/25 10:11:19;;;;;;;5.90;2.83;;;27.80;90.80;;;;;;4906861;29;20034;-81
2021/05/25 10:13:48;;;;;;;8.88;2.55;;;28.00;90.50;;;;;;4927356;29;20020;-86
2021/05/25 10:16:16;;;;;;;10.18;2.78;;;27.90;88.20;;;;;;4891721;29;20047;-86
2021/05/25 10:21:13;;;;;;;5.80;2.65;;;27.90;87.70;;;;;;4925850;29;20028;-82
2021/05/25 10:23:42;;;;;;;9.73;2.95;;;28.30;87.20;;;;;;4923762;29;20028;-86
2021/05/25 10:26:20;;;;;;;8.52;2.97;;;28.50;85.90;;;;;;4926838;29;20075;-90
2021/05/25 10:28:53;;;;;;;9.20;2.97;;;28.50;86.20;;;;;;4923837;29;20055;-88
2021/05/25 10:31:33;;;;;;;8.60;3.03;;;28.70;86.20;;;;;;4924846;29;20091;-83
2021/05/25 10:34:15;;;;;;;5.65;2.28;;;28.50;84.70;;;;;;4923541;29;20476;-81
2021/05/25 10:36:54;;;;;;;5.47;2.60;;;28.60;82.50;;;;;;4924542;29;20457;-84
2021/05/25 10:39:29;;;;;;;7.00;2.50;;;28.40;83.30;;;;;;4904730;29;20139;-81
2021/05/25 10:42:14;;;;;;;6.03;2.53;;;28.90;81.20;;;;;;4926653;29;20031;-86
2021/05/25 10:44:50;;;;;;;7.78;2.65;;;29.20;80.10;;;;;;4925085;29;20044;-84
2021/05/25 10:47:34;;;;;;;6.25;2.20;;;29.50;79.60;;;;;;4925816;29;20059;-82
2021/05/25 10:53:00;;;;;;;7.50;2.70;;;29.70;78.00;;;;;;4926478;29;20403;-82
2021/05/25 10:55:30;;;;;;;10.90;2.88;;;29.40;77.60;;;;;;4945503;29;20051;-84
2021/05/25 10:57:57;;;;;;;11.57;7.38;;;29.50;79.00;;;;;;4951321;29;20035;-87
2021/05/25 11:00:28;;;;;;;7.03;3.80;;;29.30;76.80;;;;;;4953500;28;20423;-89
2021/05/25 11:03:00;;;;;;;8.18;2.63;;;29.40;76.90;;;;;;4946246;29;20034;-83
2021/05/25 11:05:35;;;;;;;5.78;2.25;;;29.40;76.00;;;;;;4946527;28;20108;-79
2021/05/25 11:08:07;;;;;;;4.25;2.25;;;29.30;76.40;;;;;;4951659;29;20138;-82
2021/05/25 11:10:40;;;;;;;6.00;2.60;;;29.40;76.20;;;;;;4951717;29;20391;-86
2021/05/25 11:13:15;;;;;;;9.95;2.83;;;29.60;75.70;;;;;;4951251;29;20026;-86
2021/05/25 11:16:05;;;;;;;7.22;2.75;;;29.70;75.00;;;;;;4951411;29;20031;-79
2021/05/25 11:18:35;;;;;;;5.57;2.58;;;29.40;74.50;;;;;;4953041;28;20023;-79
2021/05/25 11:23:52;;;;;;;14.25;4.18;;;29.70;74.50;;;;;;4952787;28;20041;-85
2021/05/25 11:26:58;;;;;;;8.98;3.00;;;29.90;73.70;;;;;;4952854;28;20501;-83
2021/05/25 11:29:29;;;;;;;5.57;2.55;;;30.10;72.90;;;;;;4952669;28;20087;-86
2021/05/25 11:31:58;;;;;;;6.88;2.30;;;30.00;74.30;;;;;;4951924;29;20023;-84
2021/05/25 11:34:26;;;;;;;11.52;2.30;;;29.70;73.50;;;;;;4952553;28;20030;-84
2021/05/25 11:37:05;;;;;;;6.82;2.60;;;29.50;73.40;;;;;;4952639;28;20027;-82
2021/05/25 11:39:35;;;;;;;7.47;2.88;;;29.90;73.10;;;;;;4949888;29;20027;-87
2021/05/25 11:42:05;;;;;;;8.68;2.58;;;30.10;72.80;;;;;;4952608;28;20046;-81
2021/05/25 11:44:43;;;;;;;6.85;2.55;;;30.40;72.20;;;;;;4952557;28;20027;-83
2021/05/25 11:47:09;;;;;;;9.15;2.50;;;30.60;71.90;;;;;;4952778;28;20067;-83
2021/05/25 11:49:44;;;;;;;8.27;2.65;;;30.40;71.30;;;;;;4950199;29;20019;-85
2021/05/25 11:52:21;;;;;;;6.72;2.78;;;30.50;72.20;;;;;;4951617;28;20040;-79
2021/05/25 11:54:48;;;;;;;8.50;2.45;;;30.80;71.10;;;;;;4950805;28;20091;-83
2021/05/25 11:57:38;;;;;;;5.38;2.55;;;30.90;69.90;;;;;;4951248;29;20027;-83
2021/05/25 12:00:12;;;;;;;7.50;2.80;;;30.90;69.90;;;;;;4944430;29;20031;-85
2021/05/25 12:02:39;;;;;;;6.63;2.80;;;30.90;70.40;;;;;;4952602;28;20111;-84
2021/05/25 12:05:12;;;;;;;7.13;2.42;;;30.40;70.40;;;;;;4952515;28;20388;-86
2021/05/25 12:07:40;;;;;;;8.75;2.70;;;30.30;69.70;;;;;;4952751;28;20046;-86
2021/05/25 12:10:08;;;;;;;6.32;2.38;;;30.60;69.10;;;;;;4952177;28;20082;-80
2021/05/25 12:12:38;;;;;;;10.35;3.08;;;30.20;70.10;;;;;;4952628;28;20205;-83
2021/05/25 12:15:12;;;;;;;11.30;3.08;;;30.70;70.60;;;;;;4951842;28;20038;-79
2021/05/25 12:17:39;;;;;;;8.68;2.30;;;30.80;69.70;;;;;;4942381;28;20024;-81
2021/05/25 12:20:06;;;;;;;5.35;2.72;;;31.10;69.10;;;;;;4952123;28;20392;-82
2021/05/25 12:22:34;;;;;;;8.13;3.50;;;31.20;69.80;;;;;;4952522;28;20050;-85
2021/05/25 12:25:23;;;;;;;12.60;6.78;;;31.20;69.10;;;;;;4952307;28;20111;-84
2021/05/25 12:28:13;;;;;;;17.58;10.82;;;31.10;69.50;;;;;;4951316;29;20035;-85
2021/05/25 12:30:49;;;;;;;6.75;2.10;;;31.40;69.20;;;;;;4944210;29;20115;-88
2021/05/25 12:33:24;;;;;;;10.05;3.05;;;31.00;69.80;;;;;;4951956;29;20023;-89
2021/05/25 12:35:50;;;;;;;5.53;2.40;;;31.10;69.60;;;;;;4933935;29;20023;-87
2021/05/25 12:38:22;;;;;;;10.02;2.60;;;31.20;68.70;;;;;;4932334;29;20110;-86
2021/05/25 12:41:06;;;;;;;7.57;2.65;;;31.50;69.10;;;;;;4933700;29;20488;-86
2021/05/25 12:43:33;;;;;;;8.60;2.60;;;31.90;68.00;;;;;;4934176;29;20384;-85
2021/05/25 12:46:10;;;;;;;9.57;2.42;;;32.00;67.30;;;;;;4941011;28;20059;-85
2021/05/25 12:48:41;;;;;;;4.75;2.00;;;32.10;67.10;;;;;;4956570;29;20069;-83
2021/05/25 12:51:10;;;;;;;11.35;2.58;;;31.70;68.00;;;;;;4956194;29;20027;-84
2021/05/25 12:53:56;;;;;;;6.83;2.57;;;31.60;68.80;;;;;;4954850;28;20039;-87
2021/05/25 12:56:23;;;;;;;6.43;2.67;;;32.10;68.30;;;;;;4955056;29;20035;-86
2021/05/25 12:58:54;;;;;;;6.70;2.58;;;31.90;67.70;;;;;;4956274;29;20395;-88
2021/05/25 13:01:31;;;;;;;6.43;2.47;;;31.80;67.30;;;;;;4956360;29;20027;-85